Bookmark and Share
Track history (hours):
 

John R Operle

More information available from US FCC via Universal Licensing System and Coast Guard Vessel Documentation Center.

Last reported at 2014-Apr-09 02:12 UTC. Time now 2014-Apr-17 09:44 UTC.
Position N 30°04' W 090°51'.
Warning: this ship's position is 8 days out of date.

Length 56 m; draft 12.3 m.

Type: Tow > 200 m length. MMSI: 366961510.

NotesDate/timePositionNaut miles runAvg speedWind from/ knotsBaromVisibWave heightAir tempDewpointWater temp
2014-Apr-09 02:12N 30°04' W 090°51'0 0.1
2014-Apr-09 00:27N 30°04' W 090°51'0 0.0
2014-Apr-08 23:25N 30°04' W 090°51'3 3.9
2014-Apr-08 22:32N 30°00' W 090°50'6 4.7
2014-Apr-08 21:12N 30°01' W 090°43'9 5.4
2014-Apr-08 19:33N 30°03' W 090°33'0 0.1
2014-Apr-08 18:33N 30°03' W 090°33'0 0.0
2014-Apr-08 17:33N 30°03' W 090°33'0 0.0
2014-Apr-08 16:33N 30°03' W 090°33'0 0.0
2014-Apr-08 15:33N 30°03' W 090°33'0 0.0
2014-Apr-08 14:33N 30°03' W 090°33'2 2.3
2014-Apr-08 13:33N 30°03' W 090°30'0 0.4
2014-Apr-08 12:29N 30°03' W 090°30'1 1.2
2014-Apr-08 11:33N 30°03' W 090°31'0 0.0
2014-Apr-08 10:33N 30°03' W 090°31'0 0.0
2014-Apr-08 09:33N 30°03' W 090°31'0 0.0
2014-Apr-08 08:33N 30°03' W 090°31'0 0.0
2014-Apr-08 07:33N 30°03' W 090°31'0 0.0
2014-Apr-08 06:33N 30°03' W 090°31'0 0.0
2014-Apr-08 05:33N 30°03' W 090°31'3 2.6
2014-Apr-08 04:33N 30°03' W 090°34'6 5.7
2014-Apr-08 03:33N 30°03' W 090°40'7 6.6
2014-Apr-08 02:33N 30°00' W 090°47'  

Dump ship's entire track history

sailing weather and tide predictions

John R Operle — WDB8611 — position and weather